Will Rogers World Airport
KOKC : rendu visible

Aérodrome :











RETROUVEZ-NOUS SUR...

 
LOGIN :

S'inscrire | Disclaimer

   EN    FR    IT 

 









Légende :    VFR   VFR Marginal   IFR   IFR Intensif   IFR Très Intensif
Visi : 
Plafond : 
>= 8 km
>= 3000ft
5 à 8 km
1000 à 3000 ft
1500m à 5 km
500 à 1000 ft
800 à 1500m
200 à 500 ft
< 800m
< 200 ft
Symboles :   Orages  Brouillard  Fortes neiges  Fortes précipitations  Vent > 20 kt






- Altitude de l'aérodrome : 1295 ft
- Code IATA : OKC


KOKC - Will Rogers World

DERNIER METAR :
  • 050052Z 06004KT 10SM OVC015 06/02 A3004 RMK AO2 SLP178 T00560022

METARs EXPIRÉS :
  • 042352Z 04006KT 10SM OVC015 06/03 A3004 RMK AO2 SLP177 T00610028 10061 20039 55008
  • 042252Z 04006KT 10SM OVC015 06/03 A3003 RMK AO2 SLP175 T00610028

TAF KOKC
Valide du 05 à 00h jusqu'au 06 à 00h UTC


042329Z 0500/0524 05006KT P6SM OVC015
FM050300 09005KT P6SM BKN040
FM050900 14003KT 5SM BR OVC025
FM051400 16009KT P6SM OVC012
FM052100 17012KT P6SM OVC025



MET'MAP, la Météo Aéronautique d'un coup d'oeil ! - Copyright ORBIFLY Décembre 2007 - Disclaimer

ORBIFLY MET'MAP TEAM :

Programmation & Développement : Alexandra Zaïnal
Sur une idée originale de : Baudouin d'Aumeries
Assistance à la programmation : Marc-Olivier Méhu
Soutien technique & logistique : Manuel Goepfert

Contact : metmap@orbifly.com




SOURCES & CREDITS :

   NOAA       Earth
Advisory